createdAt,value
2023-01-13T00:01:30.336Z,100485.31
2023-01-13T00:03:57.799Z,100481.81
2023-01-13T00:06:26.017Z,100461.28
2023-01-13T00:08:53.779Z,100450.75
2023-01-13T00:11:21.514Z,100447.75
2023-01-13T00:13:50.582Z,100442.31
2023-01-13T00:16:19.132Z,100436.31
2023-01-13T00:18:47.293Z,100437.19
2023-01-13T00:21:24.124Z,100424.69
2023-01-13T00:23:54.092Z,100407.03
2023-01-13T00:26:24.762Z,100399.19
2023-01-13T00:28:58.606Z,100398.34
2023-01-13T00:31:26.654Z,100397.19
2023-01-13T00:33:57.359Z,100383.56
2023-01-13T00:36:24.472Z,100369.34
2023-01-13T00:38:51.603Z,100363.25
2023-01-13T00:41:21.963Z,100362.03
2023-01-13T00:43:49.314Z,100367.03
2023-01-13T00:46:20.679Z,100371.06
2023-01-13T00:48:48.613Z,100363.81
2023-01-13T00:51:21.630Z,100356.09
2023-01-13T00:53:51.376Z,100361.31
2023-01-13T00:56:39.879Z,100368.78
2023-01-13T00:59:13.135Z,100370.28
2023-01-13T01:01:41.386Z,100380.03
2023-01-13T01:04:12.070Z,100397.06
2023-01-13T01:06:39.176Z,100397.66
2023-01-13T01:09:06.417Z,100396.94
2023-01-13T01:11:34.467Z,100397.50
2023-01-13T01:14:03.308Z,100390.47
2023-01-13T01:16:55.697Z,100386.88
2023-01-13T01:19:24.009Z,100387.81
2023-01-13T01:21:51.109Z,100384.31
2023-01-13T01:24:18.295Z,100378.56
2023-01-13T01:26:45.389Z,100378.00
2023-01-13T01:29:15.337Z,100373.44
2023-01-13T01:31:43.117Z,100372.25
2023-01-13T01:34:10.432Z,100379.25
2023-01-13T01:36:37.476Z,100367.59
2023-01-13T01:39:05.208Z,100352.91
2023-01-13T01:41:34.548Z,100353.94
2023-01-13T01:44:43.372Z,100352.16
2023-01-13T01:47:13.632Z,100358.75
2023-01-13T01:49:41.390Z,100357.53
2023-01-13T01:52:24.483Z,100346.53
2023-01-13T01:55:14.607Z,100343.66
2023-01-13T01:58:18.435Z,100339.38
2023-01-13T02:00:45.549Z,100346.59
2023-01-13T02:03:13.060Z,100351.59
2023-01-13T02:05:40.186Z,100350.25
2023-01-13T02:08:08.491Z,100354.94
2023-01-13T02:10:36.440Z,100360.41
2023-01-13T02:13:08.097Z,100351.88
2023-01-13T02:16:04.117Z,100354.81
2023-01-13T02:18:58.924Z,100353.53
2023-01-13T02:21:58.477Z,100347.97
2023-01-13T02:24:54.801Z,100347.22
2023-01-13T02:27:46.789Z,100353.22
2023-01-13T02:30:52.623Z,100355.97
2023-01-13T02:33:34.309Z,100348.38
2023-01-13T02:36:33.718Z,100350.75
2023-01-13T02:39:17.359Z,100337.00
2023-01-13T02:42:30.245Z,100340.50
2023-01-13T02:45:28.422Z,100334.19
2023-01-13T02:47:58.524Z,100337.47
2023-01-13T02:50:44.905Z,100336.34
2023-01-13T02:53:25.249Z,100327.25
2023-01-13T02:55:54.583Z,100324.06
2023-01-13T02:58:26.591Z,100324.41
2023-01-13T03:00:53.973Z,100329.97
2023-01-13T03:03:21.284Z,100324.97
2023-01-13T03:05:52.231Z,100318.75
2023-01-13T03:08:28.855Z,100313.13
2023-01-13T03:11:13.509Z,100322.75
2023-01-13T03:14:02.448Z,100324.88
2023-01-13T03:17:06.676Z,100331.97
2023-01-13T03:19:58.786Z,100325.44
2023-01-13T03:22:39.754Z,100328.00
2023-01-13T03:25:31.472Z,100330.44
2023-01-13T03:28:14.938Z,100340.94
2023-01-13T03:30:47.798Z,100332.59
2023-01-13T03:33:19.946Z,100334.41
2023-01-13T03:35:52.256Z,100341.00
2023-01-13T03:38:25.676Z,100330.63
2023-01-13T03:40:58.228Z,100328.97
2023-01-13T03:43:51.041Z,100334.13
2023-01-13T03:46:31.279Z,100340.44
2023-01-13T03:48:59.582Z,100321.31
2023-01-13T03:51:30.439Z,100320.47
2023-01-13T03:54:02.712Z,100322.88
2023-01-13T03:56:49.045Z,100318.88
2023-01-13T03:59:21.640Z,100315.50
2023-01-13T04:02:17.404Z,100321.47
2023-01-13T04:05:00.702Z,100317.97
2023-01-13T04:07:40.771Z,100313.59
2023-01-13T04:10:10.532Z,100305.84
2023-01-13T04:13:07.961Z,100306.28
2023-01-13T04:15:39.540Z,100311.50
2023-01-13T04:18:17.460Z,100311.50
2023-01-13T04:20:47.406Z,100303.28
2023-01-13T04:23:16.008Z,100316.28
2023-01-13T04:25:44.685Z,100322.03
2023-01-13T04:28:12.603Z,100325.06
2023-01-13T04:30:40.552Z,100320.63
2023-01-13T04:33:07.869Z,100316.88
2023-01-13T04:35:35.810Z,100312.94
2023-01-13T04:38:05.188Z,100314.47
2023-01-13T04:40:33.807Z,100305.34
2023-01-13T04:43:01.233Z,100306.34
2023-01-13T04:45:28.310Z,100312.28
2023-01-13T04:47:55.401Z,100308.38
2023-01-13T04:50:22.974Z,100307.88
2023-01-13T04:52:51.029Z,100297.09
2023-01-13T04:55:19.407Z,100301.69
2023-01-13T04:57:46.600Z,100300.50
2023-01-13T05:00:16.546Z,100301.56
2023-01-13T05:02:43.678Z,100306.28
2023-01-13T05:05:11.542Z,100303.97
2023-01-13T05:07:38.593Z,100305.13
2023-01-13T05:10:06.208Z,100314.94
2023-01-13T05:12:52.010Z,100315.56
2023-01-13T05:15:37.572Z,100317.63
2023-01-13T05:18:05.175Z,100309.25
2023-01-13T05:20:33.202Z,100310.44
2023-01-13T05:23:18.873Z,100297.53
2023-01-13T05:25:48.023Z,100289.44
2023-01-13T05:28:15.365Z,100293.03
2023-01-13T05:30:46.195Z,100309.88
2023-01-13T05:33:18.661Z,100325.50
2023-01-13T05:35:47.092Z,100335.59
2023-01-13T05:38:15.402Z,100327.66
2023-01-13T05:41:01.220Z,100327.25
2023-01-13T05:43:29.196Z,100320.69
2023-01-13T05:46:06.082Z,100342.16
2023-01-13T05:48:39.414Z,100345.28
2023-01-13T05:51:09.755Z,100345.84
2023-01-13T05:53:37.851Z,100337.00
2023-01-13T05:56:07.079Z,100330.06
2023-01-13T05:58:34.393Z,100333.34
2023-01-13T06:01:05.155Z,100329.38
2023-01-13T06:03:32.664Z,100328.00
2023-01-13T06:06:03.828Z,100339.44
2023-01-13T06:08:32.052Z,100337.50
2023-01-13T06:10:59.170Z,100337.66
2023-01-13T06:13:26.620Z,100335.47
2023-01-13T06:15:58.494Z,100333.28
2023-01-13T06:18:26.026Z,100337.94
2023-01-13T06:20:53.137Z,100344.28
2023-01-13T06:23:20.267Z,100339.41
2023-01-13T06:26:19.728Z,100347.91
2023-01-13T06:28:46.764Z,100334.22
2023-01-13T06:31:13.924Z,100337.69
2023-01-13T06:33:47.150Z,100341.72
2023-01-13T06:36:19.594Z,100339.53
2023-01-13T06:38:49.942Z,100347.03
2023-01-13T06:41:17.393Z,100345.75
2023-01-13T06:43:44.435Z,100348.34
2023-01-13T06:46:11.483Z,100351.31
2023-01-13T06:48:38.590Z,100349.88
2023-01-13T06:51:05.890Z,100341.75
2023-01-13T06:53:33.019Z,100340.59
2023-01-13T06:56:00.263Z,100342.94
2023-01-13T06:58:27.448Z,100344.72
2023-01-13T07:00:54.885Z,100359.97
2023-01-13T07:03:22.277Z,100360.50
2023-01-13T07:05:55.382Z,100365.78
2023-01-13T07:08:24.042Z,100359.72
2023-01-13T07:10:52.895Z,100359.97
2023-01-13T07:13:39.292Z,100367.13
2023-01-13T07:16:08.598Z,100370.31
2023-01-13T07:18:36.247Z,100366.97
2023-01-13T07:21:09.225Z,100372.91
2023-01-13T07:23:41.071Z,100379.00
2023-01-13T07:26:09.706Z,100366.97
2023-01-13T07:28:37.518Z,100365.66
2023-01-13T07:31:05.707Z,100366.72
2023-01-13T07:33:33.300Z,100364.91
2023-01-13T07:36:03.580Z,100361.94
2023-01-13T07:38:32.342Z,100346.28
2023-01-13T07:41:19.783Z,100350.41
2023-01-13T07:43:47.503Z,100360.41
2023-01-13T07:46:14.654Z,100355.50
2023-01-13T07:48:42.137Z,100349.00
2023-01-13T07:51:12.177Z,100338.81
2023-01-13T07:53:39.604Z,100346.06
2023-01-13T07:56:07.947Z,100354.06
2023-01-13T07:58:36.994Z,100345.28
2023-01-13T08:01:14.276Z,100349.66
2023-01-13T08:03:41.415Z,100356.91
2023-01-13T08:06:10.093Z,100355.09
2023-01-13T08:08:37.984Z,100372.44
2023-01-13T08:11:08.087Z,100369.59
2023-01-13T08:13:35.503Z,100375.41
2023-01-13T08:16:12.817Z,100384.50
2023-01-13T08:18:40.873Z,100389.00
2023-01-13T08:21:13.925Z,100398.06
2023-01-13T08:23:43.005Z,100397.41
2023-01-13T08:26:13.785Z,100400.91
2023-01-13T08:28:40.968Z,100402.97
2023-01-13T08:31:12.726Z,100394.19
2023-01-13T08:33:40.360Z,100386.13
2023-01-13T08:36:12.255Z,100387.16
2023-01-13T08:38:40.695Z,100391.78
2023-01-13T08:41:36.687Z,100389.59
2023-01-13T08:44:04.833Z,100379.34
2023-01-13T08:46:32.234Z,100388.66
2023-01-13T08:48:59.363Z,100384.25
2023-01-13T08:51:26.934Z,100378.50
2023-01-13T08:53:54.082Z,100376.19
2023-01-13T08:56:21.157Z,100377.59
2023-01-13T08:58:48.188Z,100384.44
2023-01-13T09:03:23.176Z,100374.94
2023-01-13T09:05:50.237Z,100369.19
2023-01-13T09:09:52.104Z,100385.00
2023-01-13T09:12:37.951Z,100393.13
2023-01-13T09:15:06.392Z,100391.81
2023-01-13T09:17:33.455Z,100394.66
2023-01-13T09:20:00.568Z,100395.91
2023-01-13T09:22:27.891Z,100412.00
2023-01-13T09:24:55.915Z,100394.13
2023-01-13T09:27:23.356Z,100387.25
2023-01-13T09:29:50.577Z,100382.06
2023-01-13T09:32:17.672Z,100386.94
2023-01-13T09:34:59.977Z,100384.94
2023-01-13T09:37:29.226Z,100382.00
2023-01-13T09:39:56.799Z,100382.34
2023-01-13T09:42:59.196Z,100382.97
2023-01-13T09:45:31.568Z,100388.97
2023-01-13T09:48:16.113Z,100386.63
2023-01-13T09:50:48.772Z,100381.69
2023-01-13T09:53:26.461Z,100388.25
2023-01-13T09:55:53.771Z,100381.19
2023-01-13T09:58:21.472Z,100376.81
2023-01-13T10:01:26.660Z,100379.75
2023-01-13T10:03:53.979Z,100386.28
2023-01-13T10:06:22.223Z,100388.31
2023-01-13T10:08:49.861Z,100376.59
2023-01-13T10:11:42.132Z,100363.97
2023-01-13T10:14:24.331Z,100371.66
2023-01-13T10:17:15.543Z,100383.81
2023-01-13T10:20:07.351Z,100365.56
2023-01-13T10:23:18.666Z,100355.63
2023-01-13T10:26:06.470Z,100357.91
2023-01-13T10:28:33.597Z,100363.53
2023-01-13T10:31:09.871Z,100367.16
2023-01-13T10:33:37.018Z,100359.38
2023-01-13T10:36:17.785Z,100350.09
2023-01-13T10:38:48.083Z,100354.94
2023-01-13T10:41:15.023Z,100361.28
2023-01-13T10:43:58.640Z,100351.34
2023-01-13T10:46:26.441Z,100358.13
2023-01-13T10:48:55.878Z,100359.59
2023-01-13T10:51:27.510Z,100350.00
2023-01-13T10:53:58.729Z,100342.31
2023-01-13T10:56:34.997Z,100346.28
2023-01-13T10:59:27.384Z,100344.13
2023-01-13T11:02:26.292Z,100348.63
2023-01-13T11:04:53.808Z,100333.50
2023-01-13T11:07:34.968Z,100319.91
2023-01-13T11:10:27.073Z,100319.41
2023-01-13T11:13:17.339Z,100308.41
2023-01-13T11:15:55.364Z,100310.00
2023-01-13T11:18:37.714Z,100307.50
2023-01-13T11:21:09.809Z,100287.84
2023-01-13T11:23:42.585Z,100286.50
2023-01-13T11:26:17.820Z,100287.84
2023-01-13T11:29:01.241Z,100279.72
2023-01-13T11:31:36.875Z,100281.63
2023-01-13T11:34:39.572Z,100283.03
2023-01-13T11:37:20.117Z,100280.63
2023-01-13T11:40:40.946Z,100262.66
2023-01-13T11:43:22.920Z,100257.84
2023-01-13T11:45:54.067Z,100265.38
2023-01-13T11:48:27.025Z,100275.81
2023-01-13T11:51:19.205Z,100274.09
2023-01-13T11:54:18.261Z,100267.72
2023-01-13T11:57:16.772Z,100245.09
2023-01-13T12:00:01.387Z,100231.56
2023-01-13T12:03:17.344Z,100223.97
2023-01-13T12:06:20.394Z,100224.19
2023-01-13T12:09:12.646Z,100217.28
2023-01-13T12:12:19.195Z,100208.16
2023-01-13T12:15:21.662Z,100204.75
2023-01-13T12:18:00.955Z,100221.97
2023-01-13T12:21:01.772Z,100219.16
2023-01-13T12:24:06.080Z,100212.13
2023-01-13T12:26:38.654Z,100211.34
2023-01-13T12:29:18.781Z,100211.72
2023-01-13T12:31:51.038Z,100201.97
2023-01-13T12:34:58.311Z,100202.47
2023-01-13T12:37:50.704Z,100205.06
2023-01-13T12:40:46.996Z,100187.53
2023-01-13T12:43:39.166Z,100192.50
2023-01-13T12:46:18.538Z,100178.97
2023-01-13T12:48:46.667Z,100174.22
2023-01-13T12:51:34.092Z,100159.28
2023-01-13T12:54:25.595Z,100155.50
2023-01-13T12:56:53.965Z,100149.59
2023-01-13T12:59:21.302Z,100147.81
2023-01-13T13:02:11.973Z,100155.94
2023-01-13T13:04:43.170Z,100157.22
2023-01-13T13:07:41.881Z,100158.75
2023-01-13T13:10:24.487Z,100153.72
2023-01-13T13:13:20.759Z,100143.19
2023-01-13T13:15:50.197Z,100147.22
2023-01-13T13:18:17.104Z,100134.63
2023-01-13T13:21:08.857Z,100138.38
2023-01-13T13:23:48.258Z,100140.84
2023-01-13T13:26:26.403Z,100143.88
2023-01-13T13:29:19.840Z,100152.50
2023-01-13T13:32:22.550Z,100157.81
2023-01-13T13:35:08.412Z,100165.31
2023-01-13T13:38:33.598Z,100158.00
2023-01-13T13:41:24.153Z,100149.69
2023-01-13T13:44:09.827Z,100153.91
2023-01-13T13:46:47.539Z,100147.34
2023-01-13T13:49:35.356Z,100144.47
2023-01-13T13:52:19.205Z,100144.66
2023-01-13T13:54:51.854Z,100145.53
2023-01-13T13:57:22.509Z,100142.66
2023-01-13T13:59:55.919Z,100138.75
2023-01-13T14:02:30.036Z,100121.75
2023-01-13T14:05:20.226Z,100104.72
2023-01-13T14:07:50.730Z,100117.50
2023-01-13T14:10:24.997Z,100128.09
2023-01-13T14:12:52.775Z,100122.97
2023-01-13T14:15:32.224Z,100131.16
2023-01-13T14:18:03.319Z,100131.00
2023-01-13T14:20:30.822Z,100121.59
2023-01-13T14:23:01.665Z,100117.38
2023-01-13T14:25:44.989Z,100119.34
2023-01-13T14:28:28.289Z,100135.09
2023-01-13T14:30:56.480Z,100148.31
2023-01-13T14:33:46.053Z,100139.06
2023-01-13T14:36:37.018Z,100124.59
2023-01-13T14:39:04.054Z,100135.75
2023-01-13T14:41:41.245Z,100138.16
2023-01-13T14:44:35.130Z,100124.22
2023-01-13T14:47:26.780Z,100111.44
2023-01-13T14:50:16.891Z,100117.00
2023-01-13T14:52:50.399Z,100115.09
2023-01-13T14:55:34.353Z,100110.38
2023-01-13T14:58:28.503Z,100108.44
2023-01-13T15:01:36.326Z,100115.03
2023-01-13T15:04:22.909Z,100120.72
2023-01-13T15:06:53.261Z,100128.91
2023-01-13T15:09:27.445Z,100130.44
2023-01-13T15:11:56.243Z,100143.28
2023-01-13T15:14:31.216Z,100153.09
2023-01-13T15:16:58.346Z,100157.19
2023-01-13T15:19:25.359Z,100163.13
2023-01-13T15:21:52.411Z,100161.50
2023-01-13T15:24:19.442Z,100157.09
2023-01-13T15:26:46.460Z,100159.09
2023-01-13T15:29:16.726Z,100168.28
2023-01-13T15:31:44.038Z,100169.41
2023-01-13T15:34:11.114Z,100178.50
2023-01-13T15:36:39.780Z,100176.19
2023-01-13T15:39:10.136Z,100186.91
2023-01-13T15:41:55.668Z,100185.47
2023-01-13T15:44:41.362Z,100185.59
2023-01-13T15:47:09.878Z,100176.34
2023-01-13T15:49:42.598Z,100177.44
2023-01-13T15:52:22.967Z,100186.63
2023-01-13T15:54:51.573Z,100179.44
2023-01-13T15:57:27.225Z,100171.72
2023-01-13T16:00:16.580Z,100165.53
2023-01-13T16:02:44.469Z,100179.16
2023-01-13T16:05:12.162Z,100172.56
2023-01-13T16:07:39.511Z,100174.97
2023-01-13T16:10:16.260Z,100171.41
2023-01-13T16:12:43.384Z,100165.41
2023-01-13T16:15:14.673Z,100172.66
2023-01-13T16:17:42.291Z,100178.09
2023-01-13T16:20:17.732Z,100177.16
2023-01-13T16:22:48.073Z,100182.69
2023-01-13T16:25:21.245Z,100181.25
2023-01-13T16:27:48.830Z,100184.03
2023-01-13T16:30:41.160Z,100175.03
2023-01-13T16:33:08.241Z,100189.00
2023-01-13T16:35:35.357Z,100185.59
2023-01-13T16:38:02.440Z,100191.41
2023-01-13T16:40:36.529Z,100197.97
2023-01-13T16:43:04.693Z,100206.13
2023-01-13T16:45:32.523Z,100208.41
2023-01-13T16:48:00.049Z,100206.69
2023-01-13T16:50:40.907Z,100227.38
2023-01-13T16:53:09.579Z,100231.13
2023-01-13T16:55:38.077Z,100226.19
2023-01-13T16:58:05.712Z,100225.94
2023-01-13T17:00:32.919Z,100230.19
2023-01-13T17:03:01.908Z,100228.63
2023-01-13T17:05:29.183Z,100233.50
2023-01-13T17:07:58.219Z,100237.09
2023-01-13T17:10:25.711Z,100243.50
2023-01-13T17:12:52.787Z,100250.75
2023-01-13T17:15:20.045Z,100242.97
2023-01-13T17:17:51.848Z,100251.34
2023-01-13T17:20:19.278Z,100260.13
2023-01-13T17:22:49.726Z,100249.16
2023-01-13T17:25:21.920Z,100249.16
2023-01-13T17:27:48.944Z,100262.09
2023-01-13T17:30:16.113Z,100269.88
2023-01-13T17:32:43.113Z,100265.16
2023-01-13T17:35:10.292Z,100268.03
2023-01-13T17:37:37.320Z,100277.88
2023-01-13T17:40:05.108Z,100288.09
2023-01-13T17:42:32.190Z,100299.44
2023-01-13T17:44:59.320Z,100305.59
2023-01-13T17:47:26.339Z,100322.72
2023-01-13T17:49:53.404Z,100327.63
2023-01-13T17:52:20.606Z,100328.69
2023-01-13T17:54:47.690Z,100328.69
2023-01-13T17:57:14.753Z,100328.19
2023-01-13T17:59:41.879Z,100328.97
2023-01-13T18:02:12.387Z,100326.13
2023-01-13T18:04:40.233Z,100334.13
2023-01-13T18:07:07.371Z,100332.59
2023-01-13T18:09:34.523Z,100331.03
2023-01-13T18:12:01.823Z,100327.41
2023-01-13T18:14:28.847Z,100328.72
2023-01-13T18:16:55.900Z,100334.69
2023-01-13T18:19:41.510Z,100344.75
2023-01-13T18:22:32.168Z,100349.94
2023-01-13T18:25:17.969Z,100339.97
2023-01-13T18:27:45.102Z,100350.94
2023-01-13T18:30:13.636Z,100363.38
2023-01-13T18:32:40.695Z,100363.00
2023-01-13T18:35:10.432Z,100357.69
2023-01-13T18:37:40.428Z,100349.81
2023-01-13T18:41:25.361Z,100338.81
2023-01-13T18:43:52.571Z,100337.25
2023-01-13T18:46:19.912Z,100343.44
2023-01-13T18:48:47.369Z,100338.66
2023-01-13T18:51:14.738Z,100339.94
2023-01-13T18:53:41.908Z,100338.78
2023-01-13T18:56:14.145Z,100344.72
2023-01-13T18:58:50.882Z,100336.97
2023-01-13T19:01:27.603Z,100346.50
2023-01-13T19:04:04.859Z,100354.25
2023-01-13T19:06:33.779Z,100362.25
2023-01-13T19:09:08.651Z,100368.69
2023-01-13T19:11:36.351Z,100365.59
2023-01-13T19:14:04.424Z,100357.34
2023-01-13T19:16:31.633Z,100351.53
2023-01-13T19:18:59.883Z,100350.59
2023-01-13T19:21:28.127Z,100358.38
2023-01-13T19:23:56.881Z,100369.38
2023-01-13T19:26:24.016Z,100366.38
2023-01-13T19:28:51.168Z,100367.31
2023-01-13T19:31:20.631Z,100369.63
2023-01-13T19:33:47.925Z,100368.94
2023-01-13T19:36:15.111Z,100374.66
2023-01-13T19:38:42.235Z,100369.03
2023-01-13T19:41:34.143Z,100363.59
2023-01-13T19:44:20.032Z,100373.88
2023-01-13T19:46:47.142Z,100364.44
2023-01-13T19:49:14.335Z,100365.97
2023-01-13T19:51:41.512Z,100369.69
2023-01-13T19:54:08.634Z,100373.09
2023-01-13T19:56:35.803Z,100373.97
2023-01-13T19:59:03.653Z,100383.16
2023-01-13T20:01:31.792Z,100390.91
2023-01-13T20:04:07.478Z,100380.53
2023-01-13T20:06:34.691Z,100377.06
2023-01-13T20:09:01.880Z,100377.56
2023-01-13T20:11:31.711Z,100383.25
2023-01-13T20:14:00.512Z,100382.06
2023-01-13T20:16:29.879Z,100369.31
2023-01-13T20:18:57.196Z,100365.66
2023-01-13T20:21:24.410Z,100380.63
2023-01-13T20:23:53.249Z,100379.00
2023-01-13T20:26:21.262Z,100379.47
2023-01-13T20:28:48.562Z,100372.22
2023-01-13T20:31:16.310Z,100396.16
2023-01-13T20:33:43.967Z,100404.66
2023-01-13T20:36:31.401Z,100405.84
2023-01-13T20:39:00.431Z,100408.56
2023-01-13T20:41:54.077Z,100409.78
2023-01-13T20:44:21.290Z,100407.63
2023-01-13T20:46:48.554Z,100410.03
2023-01-13T20:49:16.553Z,100420.00
2023-01-13T20:51:43.808Z,100420.78
2023-01-13T20:54:11.101Z,100414.78
2023-01-13T20:56:38.690Z,100418.38
2023-01-13T20:59:06.116Z,100412.25
2023-01-13T21:01:34.034Z,100405.75
2023-01-13T21:04:01.614Z,100402.38
2023-01-13T21:06:30.058Z,100399.81
2023-01-13T21:08:57.612Z,100406.31
2023-01-13T21:11:46.487Z,100410.66
2023-01-13T21:14:41.717Z,100402.22
2023-01-13T21:17:37.729Z,100398.78
2023-01-13T21:20:08.739Z,100402.44
2023-01-13T21:22:36.200Z,100401.31
2023-01-13T21:25:05.207Z,100404.13
2023-01-13T21:27:32.913Z,100424.03
2023-01-13T21:30:00.100Z,100420.28
2023-01-13T21:32:27.250Z,100432.97
2023-01-13T21:34:54.507Z,100433.91
2023-01-13T21:37:22.149Z,100427.72
2023-01-13T21:39:49.356Z,100418.13
2023-01-13T21:42:36.440Z,100419.81
2023-01-13T21:45:23.579Z,100416.97
2023-01-13T21:47:51.888Z,100412.03
2023-01-13T21:50:26.938Z,100414.81
2023-01-13T21:52:55.870Z,100418.34
2023-01-13T21:55:28.850Z,100420.50
2023-01-13T21:58:10.389Z,100414.69
2023-01-13T22:00:39.494Z,100428.16
2023-01-13T22:03:08.946Z,100429.03
2023-01-13T22:05:37.066Z,100433.31
2023-01-13T22:08:05.631Z,100422.44
2023-01-13T22:10:33.241Z,100434.09
2023-01-13T22:13:22.857Z,100440.19
2023-01-13T22:15:50.446Z,100434.44
2023-01-13T22:18:20.641Z,100432.75
2023-01-13T22:20:49.097Z,100430.84
2023-01-13T22:23:16.207Z,100442.66
2023-01-13T22:25:43.392Z,100444.81
2023-01-13T22:28:13.729Z,100455.13
2023-01-13T22:30:40.994Z,100449.63
2023-01-13T22:33:08.194Z,100458.16
2023-01-13T22:35:35.359Z,100456.03
2023-01-13T22:38:02.486Z,100463.75
2023-01-13T22:40:29.619Z,100467.75
2023-01-13T22:42:56.730Z,100471.84
2023-01-13T22:45:23.975Z,100474.59
2023-01-13T22:47:51.261Z,100472.44
2023-01-13T22:50:20.810Z,100473.63
2023-01-13T22:52:48.155Z,100478.50
2023-01-13T22:55:15.394Z,100477.75
2023-01-13T22:57:48.090Z,100481.84
2023-01-13T23:00:18.914Z,100478.50
2023-01-13T23:02:46.674Z,100473.78
2023-01-13T23:05:14.018Z,100470.63
2023-01-13T23:07:41.245Z,100467.66
2023-01-13T23:10:09.546Z,100479.00
2023-01-13T23:12:36.887Z,100487.22
2023-01-13T23:15:05.358Z,100477.16
2023-01-13T23:17:32.642Z,100495.03
2023-01-13T23:19:59.874Z,100485.59
2023-01-13T23:22:27.117Z,100479.28
2023-01-13T23:24:54.335Z,100472.69
2023-01-13T23:27:21.502Z,100486.34
2023-01-13T23:29:49.115Z,100478.97
2023-01-13T23:32:16.275Z,100474.56
2023-01-13T23:34:43.388Z,100470.34
2023-01-13T23:37:10.599Z,100471.25
2023-01-13T23:39:37.828Z,100466.72
2023-01-13T23:42:05.006Z,100469.44
2023-01-13T23:44:32.243Z,100460.34
2023-01-13T23:46:59.483Z,100473.53
2023-01-13T23:49:26.813Z,100466.16
2023-01-13T23:51:54.106Z,100472.81
2023-01-13T23:54:21.466Z,100487.34
2023-01-13T23:56:50.449Z,100472.38
2023-01-13T23:59:17.575Z,100486.28
